Kaisei Maru — JD3114 — position and weather

sailwx.info

Track history (hours):
 
Tides and Currents Weather Stations Pressure Air Temp Water Temp Dewpoint Dewpoint Depression Visibility Wind Speed Wind Dir Waves Ship Positions

Kaisei Maru

Last reported at 2015-Jul-31 13:12 UTC. Time now 2015-Aug-03 10:36 UTC.
Position N 34°60' E 139°33'.

Length 52 m; draft 3.5 m.

Type: Tanker. MMSI: 431001837.

Date/timePositionNaut miles runAvg speedWind from/ knotsBaromVisibWave heightAir tempDewpointWater temp
2015-Jul-31 13:12N 34°60' E 139°33'6 9.2
2015-Jul-31 12:33N 35°04' E 139°38'10 9.8
2015-Jul-31 11:33N 35°11' E 139°46'1010.0
2015-Jul-31 10:33N 35°21' E 139°42'10 9.5
2015-Jul-31 09:33N 35°30' E 139°48'4 4.3
2015-Jul-31 08:33N 35°29' E 139°43'2 1.8
2015-Jul-31 07:33N 35°29' E 139°40'0 0.0
2015-Jul-31 06:33N 35°29' E 139°40'0 0.0
2015-Jul-31 05:33N 35°29' E 139°40'0 0.0
2015-Jul-31 04:33N 35°29' E 139°40'0 0.0
2015-Jul-31 03:33N 35°29' E 139°40'0 0.0
2015-Jul-31 02:33N 35°29' E 139°40'0 0.0
2015-Jul-31 01:33N 35°29' E 139°40'0 0.0
2015-Jul-31 00:33N 35°29' E 139°40'0 0.0
2015-Jul-30 23:33N 35°29' E 139°40'3 3.4
2015-Jul-30 22:33N 35°26' E 139°43'0 0.0
2015-Jul-30 21:33N 35°26' E 139°43'0 0.0
2015-Jul-30 20:33N 35°26' E 139°43'0 0.0
2015-Jul-30 19:33N 35°26' E 139°43'0 0.0
2015-Jul-30 18:33N 35°26' E 139°43'0 0.0
2015-Jul-30 17:33N 35°26' E 139°43'0 0.0
2015-Jul-30 16:33N 35°26' E 139°43'0 0.0
2015-Jul-30 15:33N 35°26' E 139°43'0 0.0
2015-Jul-30 14:33N 35°26' E 139°43'0 0.0
2015-Jul-30 13:34N 35°26' E 139°43'0 0.0
2015-Jul-30 12:33N 35°26' E 139°43'0 0.1
2015-Jul-30 11:33N 35°26' E 139°43'8 7.9
2015-Jul-30 10:33N 35°18' E 139°44'9 9.4
2015-Jul-30 09:33N 35°09' E 139°47'1110.8
2015-Jul-30 08:33N 35°01' E 139°39'235 4.8
2015-Jul-28 07:20N 34°03' E 135°02'7 9.3
2015-Jul-28 06:33N 34°10' E 135°02'10 9.1
2015-Jul-28 05:25N 34°20' E 135°05'910.4
2015-Jul-28 04:31N 34°28' E 135°11'1010.4
2015-Jul-28 03:33N 34°36' E 135°18'8 7.6
2015-Jul-28 02:33N 34°42' E 135°24'0 0.0
2015-Jul-28 01:33N 34°42' E 135°24'0 0.0
2015-Jul-28 00:19N 34°42' E 135°24'0 0.0
2015-Jul-27 23:33N 34°42' E 135°24'6 6.0
2015-Jul-27 22:33N 34°41' E 135°17'4 4.2
2015-Jul-27 21:33N 34°41' E 135°12'0 0.0
2015-Jul-27 20:33N 34°41' E 135°12'0 0.0
2015-Jul-27 19:33N 34°41' E 135°12'0 0.0
2015-Jul-27 18:33N 34°41' E 135°12'0 0.0
2015-Jul-27 17:33N 34°41' E 135°12'0 0.0
2015-Jul-27 16:34N 34°41' E 135°12'0 0.0
2015-Jul-27 15:33N 34°41' E 135°12'0 0.0
2015-Jul-27 14:34N 34°41' E 135°12'0 0.0
2015-Jul-27 13:33N 34°41' E 135°12'0 0.0
2015-Jul-27 12:33N 34°41' E 135°12'0 0.0
2015-Jul-27 11:33N 34°41' E 135°12'1 0.8
2015-Jul-27 10:33N 34°40' E 135°12'9 8.5
2015-Jul-27 09:33N 34°36' E 135°03'8 1.9
2015-Jul-27 05:20N 34°37' E 134°54'810.4
2015-Jul-27 04:33N 34°36' E 135°03'10 9.7
2015-Jul-27 03:33N 34°38' E 135°15'5 5.1
2015-Jul-27 02:32N 34°42' E 135°18'0 0.0
2015-Jul-27 01:18N 34°42' E 135°18'0 0.0
2015-Jul-27 00:32N 34°42' E 135°18'0 0.0
2015-Jul-26 23:33N 34°42' E 135°18'5 4.9
2015-Jul-26 22:34N 34°41' E 135°12'0 0.0
2015-Jul-26 21:33N 34°41' E 135°12'0 0.0
2015-Jul-26 20:33N 34°41' E 135°12'0 0.0
2015-Jul-26 19:33N 34°41' E 135°12'0 0.0
2015-Jul-26 18:34N 34°41' E 135°12'0 0.0
2015-Jul-26 17:33N 34°41' E 135°12'0 0.0
2015-Jul-26 16:33N 34°41' E 135°12'0 0.0
2015-Jul-26 15:33N 34°41' E 135°12'0 0.0
2015-Jul-26 14:34N 34°41' E 135°12'0 0.0
2015-Jul-26 13:33N 34°41' E 135°12'0 0.0
2015-Jul-26 12:34N 34°41' E 135°12'0 0.0
2015-Jul-26 11:33N 34°41' E 135°12'0 0.0
2015-Jul-26 10:33N 34°41' E 135°12'0 0.0
2015-Jul-26 09:34N 34°41' E 135°12'0 0.0
2015-Jul-26 08:33N 34°41' E 135°12'0 0.0
2015-Jul-26 07:33N 34°41' E 135°12'0 0.0
2015-Jul-26 06:33N 34°41' E 135°12'0 0.0
2015-Jul-26 05:34N 34°41' E 135°12'0 0.0
2015-Jul-26 04:33N 34°41' E 135°12'0 0.0
2015-Jul-26 03:33N 34°41' E 135°12'0 0.0
2015-Jul-26 02:33N 34°41' E 135°12'0 0.0
2015-Jul-26 01:33N 34°41' E 135°12'0 0.0
2015-Jul-26 00:34N 34°41' E 135°12'0 0.0
2015-Jul-25 23:33N 34°41' E 135°12'0 0.0
2015-Jul-25 22:33N 34°41' E 135°12'0 0.0
2015-Jul-25 21:33N 34°41' E 135°12'0 0.0
2015-Jul-25 20:33N 34°41' E 135°12'0 0.0
2015-Jul-25 19:33N 34°41' E 135°12'0 0.0
2015-Jul-25 18:33N 34°41' E 135°12'0 0.0
2015-Jul-25 17:33N 34°41' E 135°12'0 0.0
2015-Jul-25 16:33N 34°41' E 135°12'0 0.0
2015-Jul-25 15:33N 34°41' E 135°12'0 0.0
2015-Jul-25 14:33N 34°41' E 135°12'0 0.0
2015-Jul-25 13:33N 34°41' E 135°12'0 0.0
2015-Jul-25 12:33N 34°41' E 135°12'0 0.0
2015-Jul-25 11:33N 34°41' E 135°12'0 0.0
2015-Jul-25 10:33N 34°41' E 135°12'0 0.0
2015-Jul-25 09:33N 34°41' E 135°12'1 1.3
2015-Jul-25 08:33N 34°41' E 135°14'9 9.1
2015-Jul-25 07:33N 34°33' E 135°19'5 5.3
2015-Jul-25 06:34N 34°28' E 135°21'0 0.0
2015-Jul-25 05:34N 34°28' E 135°21'0 0.0
2015-Jul-25 04:29N 34°28' E 135°21'0 0.0
2015-Jul-25 03:33N 34°28' E 135°21'2 2.3
2015-Jul-25 02:32N 34°26' E 135°19'0 0.0
2015-Jul-25 01:31N 34°26' E 135°19'0 0.0
2015-Jul-25 00:33N 34°26' E 135°19'0 0.0
2015-Jul-24 23:33N 34°26' E 135°19'3 2.9
2015-Jul-24 22:29N 34°29' E 135°18'1010.6
2015-Jul-24 21:33N 34°38' E 135°16'4 4.0
2015-Jul-24 20:33N 34°41' E 135°12'0 0.0
2015-Jul-24 19:33N 34°41' E 135°12'0 0.0
2015-Jul-24 18:33N 34°41' E 135°12'0 0.0
2015-Jul-24 17:33N 34°41' E 135°12'0 0.0
2015-Jul-24 16:33N 34°41' E 135°12'0 0.0
2015-Jul-24 15:33N 34°41' E 135°12'0 0.0
2015-Jul-24 14:33N 34°41' E 135°12'0 0.0
2015-Jul-24 13:33N 34°41' E 135°12'0 0.0
2015-Jul-24 12:33N 34°41' E 135°12'0 0.0
2015-Jul-24 11:33N 34°41' E 135°12'0 0.0
2015-Jul-24 10:33N 34°41' E 135°12'0 0.0
2015-Jul-24 09:33N 34°41' E 135°12'0 0.0
2015-Jul-24 08:33N 34°41' E 135°12'0 0.0
2015-Jul-24 07:33N 34°41' E 135°12'0 0.0
2015-Jul-24 06:33N 34°41' E 135°12'0 0.0
2015-Jul-24 05:33N 34°41' E 135°12'0 0.0
2015-Jul-24 04:33N 34°41' E 135°12'0 0.0
2015-Jul-24 03:33N 34°41' E 135°12'0 0.0
2015-Jul-24 02:33N 34°41' E 135°12'0 0.0
2015-Jul-24 01:33N 34°41' E 135°12'0 0.0
2015-Jul-24 00:33N 34°41' E 135°12'0 0.0
2015-Jul-23 23:33N 34°41' E 135°12'0 0.0
2015-Jul-23 22:33N 34°41' E 135°12'0 0.0
2015-Jul-23 21:33N 34°41' E 135°12'0 0.0
2015-Jul-23 20:33N 34°41' E 135°12'0 0.0
2015-Jul-23 19:33N 34°41' E 135°12'0 0.0
2015-Jul-23 18:33N 34°41' E 135°12'0 0.0
2015-Jul-23 17:33N 34°41' E 135°12'0 0.0
2015-Jul-23 16:33N 34°41' E 135°12'0 0.0
2015-Jul-23 15:33N 34°41' E 135°12'0 0.0
2015-Jul-23 14:33N 34°41' E 135°12'0 0.0
2015-Jul-23 13:33N 34°41' E 135°12'0 0.0
2015-Jul-23 12:33N 34°41' E 135°12'0 0.0
2015-Jul-23 11:33N 34°41' E 135°12'0 0.0
2015-Jul-23 10:33N 34°41' E 135°12'0 0.0
2015-Jul-23 09:33N 34°41' E 135°12'0 0.0
2015-Jul-23 08:33N 34°41' E 135°12'0 0.0
2015-Jul-23 07:33N 34°41' E 135°12'0 0.0
2015-Jul-23 06:33N 34°41' E 135°12'3 3.1
2015-Jul-23 05:33N 34°38' E 135°11'9 8.5
2015-Jul-23 04:33N 34°37' E 135°01'10 8.4
2015-Jul-23 03:23N 34°40' E 134°49'7 1.3
2015-Jul-22 21:33N 34°37' E 134°58'7 7.4
2015-Jul-22 20:33N 34°36' E 135°07'7 6.7
2015-Jul-22 19:33N 34°41' E 135°12'0 0.0
2015-Jul-22 18:33N 34°41' E 135°12'0 0.0
2015-Jul-22 17:33N 34°41' E 135°12'0 0.0
2015-Jul-22 16:33N 34°41' E 135°12'0 0.0
2015-Jul-22 15:33N 34°41' E 135°12'0 0.0
2015-Jul-22 14:33N 34°41' E 135°12'0 0.0
2015-Jul-22 13:33N 34°41' E 135°12'0 0.0
2015-Jul-22 12:33N 34°41' E 135°12'0 0.0
2015-Jul-22 11:33N 34°41' E 135°12'0 0.0
2015-Jul-22 10:33N 34°41' E 135°12'0 0.0
2015-Jul-22 09:32N 34°41' E 135°12'0 0.0
2015-Jul-22 08:33N 34°41' E 135°12'0 0.0
2015-Jul-22 07:33N 34°41' E 135°12'0 0.0
2015-Jul-22 06:33N 34°41' E 135°12'0 0.0
2015-Jul-22 05:33N 34°41' E 135°12'0 0.0
2015-Jul-22 04:33N 34°41' E 135°12'0 0.0
2015-Jul-22 03:33N 34°41' E 135°12'0 0.0
2015-Jul-22 02:33N 34°41' E 135°12'1 0.9
2015-Jul-22 01:33N 34°40' E 135°12'2 1.5
2015-Jul-22 00:33N 34°39' E 135°11'2 2.4
2015-Jul-21 23:33N 34°41' E 135°12'0 0.0
2015-Jul-21 22:33N 34°41' E 135°12'0 0.0
2015-Jul-21 21:33N 34°41' E 135°12'0 0.0
2015-Jul-21 20:33N 34°41' E 135°12'0 0.0
2015-Jul-21 19:33N 34°41' E 135°12'0 0.0
2015-Jul-21 18:33N 34°41' E 135°12'0 0.0
2015-Jul-21 17:33N 34°41' E 135°12'0 0.0
2015-Jul-21 16:33N 34°41' E 135°12'0 0.0
2015-Jul-21 15:33N 34°41' E 135°12'0 0.0
2015-Jul-21 14:33N 34°41' E 135°12'4 4.1
2015-Jul-21 13:34N 34°39' E 135°16'  
Track history (hours):
 
Tides and Currents Weather Stations Pressure Air Temp Water Temp Dewpoint Dewpoint Depression Visibility Wind Speed Wind Dir Waves Ship Positions

Kaisei Maru

Last reported at 2015-Jul-31 13:12 UTC. Time now 2015-Aug-03 10:36 UTC.
Position N 34°60' E 139°33'.

Length 52 m; draft 3.5 m.

Type: Tanker. MMSI: 431001837.

Date/timePositionNaut miles runAvg speedWind from/ knotsBaromVisibWave heightAir tempDewpointWater temp
2015-Jul-31 13:12N 34°60' E 139°33'6 9.2
2015-Jul-31 12:33N 35°04' E 139°38'10 9.8
2015-Jul-31 11:33N 35°11' E 139°46'1010.0
2015-Jul-31 10:33N 35°21' E 139°42'10 9.5
2015-Jul-31 09:33N 35°30' E 139°48'4 4.3
2015-Jul-31 08:33N 35°29' E 139°43'2 1.8
2015-Jul-31 07:33N 35°29' E 139°40'0 0.0
2015-Jul-31 06:33N 35°29' E 139°40'0 0.0
2015-Jul-31 05:33N 35°29' E 139°40'0 0.0
2015-Jul-31 04:33N 35°29' E 139°40'0 0.0
2015-Jul-31 03:33N 35°29' E 139°40'0 0.0
2015-Jul-31 02:33N 35°29' E 139°40'0 0.0
2015-Jul-31 01:33N 35°29' E 139°40'0 0.0
2015-Jul-31 00:33N 35°29' E 139°40'0 0.0
2015-Jul-30 23:33N 35°29' E 139°40'3 3.4
2015-Jul-30 22:33N 35°26' E 139°43'0 0.0
2015-Jul-30 21:33N 35°26' E 139°43'0 0.0
2015-Jul-30 20:33N 35°26' E 139°43'0 0.0
2015-Jul-30 19:33N 35°26' E 139°43'0 0.0
2015-Jul-30 18:33N 35°26' E 139°43'0 0.0
2015-Jul-30 17:33N 35°26' E 139°43'0 0.0
2015-Jul-30 16:33N 35°26' E 139°43'0 0.0
2015-Jul-30 15:33N 35°26' E 139°43'0 0.0
2015-Jul-30 14:33N 35°26' E 139°43'0 0.0
2015-Jul-30 13:34N 35°26' E 139°43'0 0.0
2015-Jul-30 12:33N 35°26' E 139°43'0 0.1
2015-Jul-30 11:33N 35°26' E 139°43'8 7.9
2015-Jul-30 10:33N 35°18' E 139°44'9 9.4
2015-Jul-30 09:33N 35°09' E 139°47'1110.8
2015-Jul-30 08:33N 35°01' E 139°39'235 4.8
2015-Jul-28 07:20N 34°03' E 135°02'7 9.3
2015-Jul-28 06:33N 34°10' E 135°02'10 9.1
2015-Jul-28 05:25N 34°20' E 135°05'910.4
2015-Jul-28 04:31N 34°28' E 135°11'1010.4
2015-Jul-28 03:33N 34°36' E 135°18'8 7.6
2015-Jul-28 02:33N 34°42' E 135°24'0 0.0
2015-Jul-28 01:33N 34°42' E 135°24'0 0.0
2015-Jul-28 00:19N 34°42' E 135°24'0 0.0
2015-Jul-27 23:33N 34°42' E 135°24'6 6.0
2015-Jul-27 22:33N 34°41' E 135°17'4 4.2
2015-Jul-27 21:33N 34°41' E 135°12'0 0.0
2015-Jul-27 20:33N 34°41' E 135°12'0 0.0
2015-Jul-27 19:33N 34°41' E 135°12'0 0.0
2015-Jul-27 18:33N 34°41' E 135°12'0 0.0
2015-Jul-27 17:33N 34°41' E 135°12'0 0.0
2015-Jul-27 16:34N 34°41' E 135°12'0 0.0
2015-Jul-27 15:33N 34°41' E 135°12'0 0.0
2015-Jul-27 14:34N 34°41' E 135°12'0 0.0
2015-Jul-27 13:33N 34°41' E 135°12'0 0.0
2015-Jul-27 12:33N 34°41' E 135°12'0 0.0
2015-Jul-27 11:33N 34°41' E 135°12'1 0.8
2015-Jul-27 10:33N 34°40' E 135°12'9 8.5
2015-Jul-27 09:33N 34°36' E 135°03'8 1.9
2015-Jul-27 05:20N 34°37' E 134°54'810.4
2015-Jul-27 04:33N 34°36' E 135°03'10 9.7
2015-Jul-27 03:33N 34°38' E 135°15'5 5.1
2015-Jul-27 02:32N 34°42' E 135°18'0 0.0
2015-Jul-27 01:18N 34°42' E 135°18'0 0.0
2015-Jul-27 00:32N 34°42' E 135°18'0 0.0
2015-Jul-26 23:33N 34°42' E 135°18'5 4.9
2015-Jul-26 22:34N 34°41' E 135°12'0 0.0
2015-Jul-26 21:33N 34°41' E 135°12'0 0.0
2015-Jul-26 20:33N 34°41' E 135°12'0 0.0
2015-Jul-26 19:33N 34°41' E 135°12'0 0.0
2015-Jul-26 18:34N 34°41' E 135°12'0 0.0
2015-Jul-26 17:33N 34°41' E 135°12'0 0.0
2015-Jul-26 16:33N 34°41' E 135°12'0 0.0
2015-Jul-26 15:33N 34°41' E 135°12'0 0.0
2015-Jul-26 14:34N 34°41' E 135°12'0 0.0
2015-Jul-26 13:33N 34°41' E 135°12'0 0.0
2015-Jul-26 12:34N 34°41' E 135°12'0 0.0
2015-Jul-26 11:33N 34°41' E 135°12'0 0.0
2015-Jul-26 10:33N 34°41' E 135°12'0 0.0
2015-Jul-26 09:34N 34°41' E 135°12'0 0.0
2015-Jul-26 08:33N 34°41' E 135°12'0 0.0
2015-Jul-26 07:33N 34°41' E 135°12'0 0.0
2015-Jul-26 06:33N 34°41' E 135°12'0 0.0
2015-Jul-26 05:34N 34°41' E 135°12'0 0.0
2015-Jul-26 04:33N 34°41' E 135°12'0 0.0
2015-Jul-26 03:33N 34°41' E 135°12'0 0.0
2015-Jul-26 02:33N 34°41' E 135°12'0 0.0
2015-Jul-26 01:33N 34°41' E 135°12'0 0.0
2015-Jul-26 00:34N 34°41' E 135°12'0 0.0
2015-Jul-25 23:33N 34°41' E 135°12'0 0.0
2015-Jul-25 22:33N 34°41' E 135°12'0 0.0
2015-Jul-25 21:33N 34°41' E 135°12'0 0.0
2015-Jul-25 20:33N 34°41' E 135°12'0 0.0
2015-Jul-25 19:33N 34°41' E 135°12'0 0.0
2015-Jul-25 18:33N 34°41' E 135°12'0 0.0
2015-Jul-25 17:33N 34°41' E 135°12'0 0.0
2015-Jul-25 16:33N 34°41' E 135°12'0 0.0
2015-Jul-25 15:33N 34°41' E 135°12'0 0.0
2015-Jul-25 14:33N 34°41' E 135°12'0 0.0
2015-Jul-25 13:33N 34°41' E 135°12'0 0.0
2015-Jul-25 12:33N 34°41' E 135°12'0 0.0
2015-Jul-25 11:33N 34°41' E 135°12'0 0.0
2015-Jul-25 10:33N 34°41' E 135°12'0 0.0
2015-Jul-25 09:33N 34°41' E 135°12'1 1.3
2015-Jul-25 08:33N 34°41' E 135°14'9 9.1
2015-Jul-25 07:33N 34°33' E 135°19'5 5.3
2015-Jul-25 06:34N 34°28' E 135°21'0 0.0
2015-Jul-25 05:34N 34°28' E 135°21'0 0.0
2015-Jul-25 04:29N 34°28' E 135°21'0 0.0
2015-Jul-25 03:33N 34°28' E 135°21'2 2.3
2015-Jul-25 02:32N 34°26' E 135°19'0 0.0
2015-Jul-25 01:31N 34°26' E 135°19'0 0.0
2015-Jul-25 00:33N 34°26' E 135°19'0 0.0
2015-Jul-24 23:33N 34°26' E 135°19'3 2.9
2015-Jul-24 22:29N 34°29' E 135°18'1010.6
2015-Jul-24 21:33N 34°38' E 135°16'4 4.0
2015-Jul-24 20:33N 34°41' E 135°12'0 0.0
2015-Jul-24 19:33N 34°41' E 135°12'0 0.0
2015-Jul-24 18:33N 34°41' E 135°12'0 0.0
2015-Jul-24 17:33N 34°41' E 135°12'0 0.0
2015-Jul-24 16:33N 34°41' E 135°12'0 0.0
2015-Jul-24 15:33N 34°41' E 135°12'0 0.0
2015-Jul-24 14:33N 34°41' E 135°12'0 0.0
2015-Jul-24 13:33N 34°41' E 135°12'0 0.0
2015-Jul-24 12:33N 34°41' E 135°12'0 0.0
2015-Jul-24 11:33N 34°41' E 135°12'0 0.0
2015-Jul-24 10:33N 34°41' E 135°12'0 0.0
2015-Jul-24 09:33N 34°41' E 135°12'0 0.0
2015-Jul-24 08:33N 34°41' E 135°12'0 0.0
2015-Jul-24 07:33N 34°41' E 135°12'0 0.0
2015-Jul-24 06:33N 34°41' E 135°12'0 0.0
2015-Jul-24 05:33N 34°41' E 135°12'0 0.0
2015-Jul-24 04:33N 34°41' E 135°12'0 0.0
2015-Jul-24 03:33N 34°41' E 135°12'0 0.0
2015-Jul-24 02:33N 34°41' E 135°12'0 0.0
2015-Jul-24 01:33N 34°41' E 135°12'0 0.0
2015-Jul-24 00:33N 34°41' E 135°12'0 0.0
2015-Jul-23 23:33N 34°41' E 135°12'0 0.0
2015-Jul-23 22:33N 34°41' E 135°12'0 0.0
2015-Jul-23 21:33N 34°41' E 135°12'0 0.0
2015-Jul-23 20:33N 34°41' E 135°12'0 0.0
2015-Jul-23 19:33N 34°41' E 135°12'0 0.0
2015-Jul-23 18:33N 34°41' E 135°12'0 0.0
2015-Jul-23 17:33N 34°41' E 135°12'0 0.0
2015-Jul-23 16:33N 34°41' E 135°12'0 0.0
2015-Jul-23 15:33N 34°41' E 135°12'0 0.0
2015-Jul-23 14:33N 34°41' E 135°12'0 0.0
2015-Jul-23 13:33N 34°41' E 135°12'0 0.0
2015-Jul-23 12:33N 34°41' E 135°12'0 0.0
2015-Jul-23 11:33N 34°41' E 135°12'0 0.0
2015-Jul-23 10:33N 34°41' E 135°12'0 0.0
2015-Jul-23 09:33N 34°41' E 135°12'0 0.0
2015-Jul-23 08:33N 34°41' E 135°12'0 0.0
2015-Jul-23 07:33N 34°41' E 135°12'0 0.0
2015-Jul-23 06:33N 34°41' E 135°12'3 3.1
2015-Jul-23 05:33N 34°38' E 135°11'9 8.5
2015-Jul-23 04:33N 34°37' E 135°01'10 8.4
2015-Jul-23 03:23N 34°40' E 134°49'7 1.3
2015-Jul-22 21:33N 34°37' E 134°58'7 7.4
2015-Jul-22 20:33N 34°36' E 135°07'7 6.7
2015-Jul-22 19:33N 34°41' E 135°12'0 0.0
2015-Jul-22 18:33N 34°41' E 135°12'0 0.0
2015-Jul-22 17:33N 34°41' E 135°12'0 0.0
2015-Jul-22 16:33N 34°41' E 135°12'0 0.0
2015-Jul-22 15:33N 34°41' E 135°12'0 0.0
2015-Jul-22 14:33N 34°41' E 135°12'0 0.0
2015-Jul-22 13:33N 34°41' E 135°12'0 0.0
2015-Jul-22 12:33N 34°41' E 135°12'0 0.0
2015-Jul-22 11:33N 34°41' E 135°12'0 0.0
2015-Jul-22 10:33N 34°41' E 135°12'0 0.0
2015-Jul-22 09:32N 34°41' E 135°12'0 0.0
2015-Jul-22 08:33N 34°41' E 135°12'0 0.0
2015-Jul-22 07:33N 34°41' E 135°12'0 0.0
2015-Jul-22 06:33N 34°41' E 135°12'0 0.0
2015-Jul-22 05:33N 34°41' E 135°12'0 0.0
2015-Jul-22 04:33N 34°41' E 135°12'0 0.0
2015-Jul-22 03:33N 34°41' E 135°12'0 0.0
2015-Jul-22 02:33N 34°41' E 135°12'1 0.9
2015-Jul-22 01:33N 34°40' E 135°12'2 1.5
2015-Jul-22 00:33N 34°39' E 135°11'2 2.4
2015-Jul-21 23:33N 34°41' E 135°12'0 0.0
2015-Jul-21 22:33N 34°41' E 135°12'0 0.0
2015-Jul-21 21:33N 34°41' E 135°12'0 0.0
2015-Jul-21 20:33N 34°41' E 135°12'0 0.0
2015-Jul-21 19:33N 34°41' E 135°12'0 0.0
2015-Jul-21 18:33N 34°41' E 135°12'0 0.0
2015-Jul-21 17:33N 34°41' E 135°12'0 0.0
2015-Jul-21 16:33N 34°41' E 135°12'0 0.0
2015-Jul-21 15:33N 34°41' E 135°12'0 0.0
2015-Jul-21 14:33N 34°41' E 135°12'4 4.1
2015-Jul-21 13:34N 34°39' E 135°16'  

Dump ship's entire track history